sensor_id;sensor_type;location;lat;lon;timestamp;pressure;altitude;pressure_sealevel;temperature;humidity
20860;BME280;10590;48.154;11.514;2023-03-13T00:04:36;95406.41;;;6.51;72.76
20860;BME280;10590;48.154;11.514;2023-03-13T00:09:37;95383.72;;;6.31;72.80
20860;BME280;10590;48.154;11.514;2023-03-13T00:14:39;95380.50;;;6.34;73.06
20860;BME280;10590;48.154;11.514;2023-03-13T00:19:42;95380.78;;;6.47;72.38
20860;BME280;10590;48.154;11.514;2023-03-13T00:24:44;95378.63;;;6.35;72.21
20860;BME280;10590;48.154;11.514;2023-03-13T00:29:48;95370.50;;;5.99;72.85
20860;BME280;10590;48.154;11.514;2023-03-13T00:34:52;95364.28;;;6.22;72.46
20860;BME280;10590;48.154;11.514;2023-03-13T00:39:53;95360.16;;;6.30;72.64
20860;BME280;10590;48.154;11.514;2023-03-13T00:44:56;95340.94;;;6.11;73.19
20860;BME280;10590;48.154;11.514;2023-03-13T00:50:00;95334.41;;;5.89;73.57
20860;BME280;10590;48.154;11.514;2023-03-13T00:55:02;95340.13;;;5.78;73.68
20860;BME280;10590;48.154;11.514;2023-03-13T01:00:10;95320.38;;;5.56;73.87
20860;BME280;10590;48.154;11.514;2023-03-13T01:05:13;95338.81;;;5.61;74.26
20860;BME280;10590;48.154;11.514;2023-03-13T01:10:16;95332.28;;;5.40;74.77
20860;BME280;10590;48.154;11.514;2023-03-13T01:15:22;95313.28;;;5.19;75.94
20860;BME280;10590;48.154;11.514;2023-03-13T01:20:28;95322.78;;;5.39;74.89
20860;BME280;10590;48.154;11.514;2023-03-13T01:25:34;95322.09;;;5.33;75.42
20860;BME280;10590;48.154;11.514;2023-03-13T01:30:36;95314.50;;;5.27;74.95
20860;BME280;10590;48.154;11.514;2023-03-13T01:35:41;95313.34;;;5.14;75.41
20860;BME280;10590;48.154;11.514;2023-03-13T01:40:44;95303.06;;;5.12;75.07
20860;BME280;10590;48.154;11.514;2023-03-13T01:46:02;95301.06;;;5.04;75.76
20860;BME280;10590;48.154;11.514;2023-03-13T01:51:08;95307.84;;;5.10;75.79
20860;BME280;10590;48.154;11.514;2023-03-13T01:56:15;95292.31;;;4.90;76.29
20860;BME280;10590;48.154;11.514;2023-03-13T02:01:18;95287.44;;;4.97;76.38
20860;BME280;10590;48.154;11.514;2023-03-13T02:06:22;95277.16;;;4.77;76.45
20860;BME280;10590;48.154;11.514;2023-03-13T02:11:28;95262.81;;;4.83;76.28
20860;BME280;10590;48.154;11.514;2023-03-13T02:16:33;95278.78;;;4.92;76.36
20860;BME280;10590;48.154;11.514;2023-03-13T02:21:41;95276.81;;;4.84;76.48
20860;BME280;10590;48.154;11.514;2023-03-13T02:26:45;95274.88;;;4.89;76.17
20860;BME280;10590;48.154;11.514;2023-03-13T02:31:47;95273.66;;;4.82;76.29
20860;BME280;10590;48.154;11.514;2023-03-13T02:36:49;95280.50;;;4.83;76.90
20860;BME280;10590;48.154;11.514;2023-03-13T02:41:53;95281.44;;;4.54;77.41
20860;BME280;10590;48.154;11.514;2023-03-13T02:46:56;95280.31;;;4.60;77.01
20860;BME280;10590;48.154;11.514;2023-03-13T02:52:01;95287.88;;;4.67;77.29
20860;BME280;10590;48.154;11.514;2023-03-13T02:57:06;95285.22;;;4.48;77.53
20860;BME280;10590;48.154;11.514;2023-03-13T03:02:08;95282.88;;;4.46;77.53
20860;BME280;10590;48.154;11.514;2023-03-13T03:07:09;95287.09;;;4.47;77.36
20860;BME280;10590;48.154;11.514;2023-03-13T03:12:12;95279.03;;;4.58;77.01
20860;BME280;10590;48.154;11.514;2023-03-13T03:17:14;95277.72;;;4.74;76.64
20860;BME280;10590;48.154;11.514;2023-03-13T03:22:17;95290.16;;;4.55;77.22
20860;BME280;10590;48.154;11.514;2023-03-13T03:27:20;95285.09;;;4.58;75.99
20860;BME280;10590;48.154;11.514;2023-03-13T03:32:22;95282.16;;;4.78;75.73
20860;BME280;10590;48.154;11.514;2023-03-13T03:37:24;95277.44;;;4.57;76.10
20860;BME280;10590;48.154;11.514;2023-03-13T03:42:27;95270.22;;;4.62;76.43
20860;BME280;10590;48.154;11.514;2023-03-13T03:47:28;95274.78;;;4.94;74.84
20860;BME280;10590;48.154;11.514;2023-03-13T03:52:30;95262.22;;;4.86;74.86
20860;BME280;10590;48.154;11.514;2023-03-13T03:57:33;95252.44;;;4.68;74.64
20860;BME280;10590;48.154;11.514;2023-03-13T04:02:34;95256.22;;;4.80;74.88
20860;BME280;10590;48.154;11.514;2023-03-13T04:07:36;95251.28;;;4.93;73.85
20860;BME280;10590;48.154;11.514;2023-03-13T04:12:39;95249.78;;;4.87;74.53
20860;BME280;10590;48.154;11.514;2023-03-13T04:17:41;95221.09;;;4.80;74.13
20860;BME280;10590;48.154;11.514;2023-03-13T04:22:43;95223.41;;;5.00;73.94
20860;BME280;10590;48.154;11.514;2023-03-13T04:27:46;95209.31;;;5.05;73.47
20860;BME280;10590;48.154;11.514;2023-03-13T04:32:47;95196.59;;;5.07;73.15
20860;BME280;10590;48.154;11.514;2023-03-13T04:37:50;95178.88;;;4.75;73.57
20860;BME280;10590;48.154;11.514;2023-03-13T04:42:53;95181.91;;;5.15;72.83
20860;BME280;10590;48.154;11.514;2023-03-13T04:47:54;95173.75;;;4.97;73.30
20860;BME280;10590;48.154;11.514;2023-03-13T04:52:56;95155.94;;;5.03;73.04
20860;BME280;10590;48.154;11.514;2023-03-13T04:57:59;95167.88;;;5.00;72.71
20860;BME280;10590;48.154;11.514;2023-03-13T05:03:00;95154.88;;;5.04;72.57
20860;BME280;10590;48.154;11.514;2023-03-13T05:08:02;95161.00;;;5.32;72.55
20860;BME280;10590;48.154;11.514;2023-03-13T05:13:06;95150.66;;;5.17;71.74
20860;BME280;10590;48.154;11.514;2023-03-13T05:18:08;95124.94;;;5.36;71.63
20860;BME280;10590;48.154;11.514;2023-03-13T05:23:09;95136.97;;;5.15;71.87
20860;BME280;10590;48.154;11.514;2023-03-13T05:28:12;95133.28;;;5.43;70.83
20860;BME280;10590;48.154;11.514;2023-03-13T05:33:14;95134.06;;;5.57;70.18
20860;BME280;10590;48.154;11.514;2023-03-13T05:38:15;95128.19;;;5.47;70.63
20860;BME280;10590;48.154;11.514;2023-03-13T05:43:19;95112.00;;;5.62;69.91
20860;BME280;10590;48.154;11.514;2023-03-13T05:48:20;95110.19;;;5.85;68.64
20860;BME280;10590;48.154;11.514;2023-03-13T05:53:23;95112.38;;;5.96;68.78
20860;BME280;10590;48.154;11.514;2023-03-13T05:58:26;95112.84;;;6.12;68.19
20860;BME280;10590;48.154;11.514;2023-03-13T06:03:28;95099.00;;;6.01;67.77
20860;BME280;10590;48.154;11.514;2023-03-13T06:08:30;95100.69;;;6.33;66.63
20860;BME280;10590;48.154;11.514;2023-03-13T06:13:34;95086.94;;;6.76;65.82
20860;BME280;10590;48.154;11.514;2023-03-13T06:18:35;95070.91;;;6.81;64.96
20860;BME280;10590;48.154;11.514;2023-03-13T06:23:37;95066.88;;;7.15;63.50
20860;BME280;10590;48.154;11.514;2023-03-13T06:28:40;95083.59;;;7.24;63.74
20860;BME280;10590;48.154;11.514;2023-03-13T06:33:42;95080.91;;;7.63;62.34
20860;BME280;10590;48.154;11.514;2023-03-13T06:38:43;95076.53;;;7.59;62.37
20860;BME280;10590;48.154;11.514;2023-03-13T06:43:46;95077.78;;;7.61;62.68
20860;BME280;10590;48.154;11.514;2023-03-13T06:48:49;95076.13;;;7.83;61.46
20860;BME280;10590;48.154;11.514;2023-03-13T06:53:51;95072.25;;;8.06;61.16
20860;BME280;10590;48.154;11.514;2023-03-13T06:58:54;95079.28;;;8.02;62.18
20860;BME280;10590;48.154;11.514;2023-03-13T07:03:55;95080.69;;;8.08;61.18
20860;BME280;10590;48.154;11.514;2023-03-13T07:08:57;95071.94;;;8.16;60.26
20860;BME280;10590;48.154;11.514;2023-03-13T07:14:00;95068.19;;;8.26;58.71
20860;BME280;10590;48.154;11.514;2023-03-13T07:19:01;95061.00;;;8.52;58.05
20860;BME280;10590;48.154;11.514;2023-03-13T07:24:04;95052.94;;;8.96;56.90
20860;BME280;10590;48.154;11.514;2023-03-13T07:29:07;95057.22;;;8.79;57.24
20860;BME280;10590;48.154;11.514;2023-03-13T07:34:08;95057.81;;;8.85;56.02
20860;BME280;10590;48.154;11.514;2023-03-13T07:39:10;95058.13;;;8.92;56.34
20860;BME280;10590;48.154;11.514;2023-03-13T07:44:13;95051.59;;;8.72;57.05
20860;BME280;10590;48.154;11.514;2023-03-13T07:49:15;95053.84;;;9.08;56.46
20860;BME280;10590;48.154;11.514;2023-03-13T07:54:16;95065.44;;;9.42;55.67
20860;BME280;10590;48.154;11.514;2023-03-13T07:59:19;95065.97;;;9.65;55.21
20860;BME280;10590;48.154;11.514;2023-03-13T08:04:21;95061.88;;;9.67;54.25
20860;BME280;10590;48.154;11.514;2023-03-13T08:09:23;95054.03;;;9.92;54.39
20860;BME280;10590;48.154;11.514;2023-03-13T08:14:26;95045.13;;;10.08;53.51
20860;BME280;10590;48.154;11.514;2023-03-13T08:19:28;95044.25;;;10.25;52.95
20860;BME280;10590;48.154;11.514;2023-03-13T08:24:30;95055.00;;;10.70;52.11
20860;BME280;10590;48.154;11.514;2023-03-13T08:29:33;95054.47;;;10.44;54.68
20860;BME280;10590;48.154;11.514;2023-03-13T08:34:34;95053.31;;;10.03;57.37
20860;BME280;10590;48.154;11.514;2023-03-13T08:39:36;95049.75;;;9.78;59.00
20860;BME280;10590;48.154;11.514;2023-03-13T08:44:39;95036.16;;;10.34;57.95
20860;BME280;10590;48.154;11.514;2023-03-13T08:49:41;95037.88;;;11.29;53.82
20860;BME280;10590;48.154;11.514;2023-03-13T08:54:42;95056.31;;;11.09;53.16
20860;BME280;10590;48.154;11.514;2023-03-13T08:59:45;95052.91;;;11.58;52.25
20860;BME280;10590;48.154;11.514;2023-03-13T09:04:47;95037.78;;;13.92;46.39
20860;BME280;10590;48.154;11.514;2023-03-13T09:09:49;95032.97;;;13.66;46.54
20860;BME280;10590;48.154;11.514;2023-03-13T09:14:52;95032.22;;;14.01;45.32
20860;BME280;10590;48.154;11.514;2023-03-13T09:19:53;95037.22;;;15.41;42.50
20860;BME280;10590;48.154;11.514;2023-03-13T09:24:55;95022.34;;;16.56;40.39
20860;BME280;10590;48.154;11.514;2023-03-13T09:29:58;95014.34;;;18.62;36.04
20860;BME280;10590;48.154;11.514;2023-03-13T09:35:00;95009.06;;;16.71;39.18
20860;BME280;10590;48.154;11.514;2023-03-13T09:40:02;95000.31;;;14.92;42.89
20860;BME280;10590;48.154;11.514;2023-03-13T09:45:10;94990.97;;;15.32;42.35
20860;BME280;10590;48.154;11.514;2023-03-13T09:50:22;94985.94;;;16.70;38.09
20860;BME280;10590;48.154;11.514;2023-03-13T09:55:27;94989.16;;;17.27;37.08
20860;BME280;10590;48.154;11.514;2023-03-13T10:00:35;94975.38;;;17.87;35.99
20860;BME280;10590;48.154;11.514;2023-03-13T10:05:38;94952.03;;;17.57;36.28
20860;BME280;10590;48.154;11.514;2023-03-13T10:10:47;94965.22;;;16.74;36.96
20860;BME280;10590;48.154;11.514;2023-03-13T10:15:55;94954.84;;;17.24;36.06
20860;BME280;10590;48.154;11.514;2023-03-13T10:20:59;94951.19;;;16.98;36.86
20860;BME280;10590;48.154;11.514;2023-03-13T10:26:01;94954.53;;;17.80;36.45
20860;BME280;10590;48.154;11.514;2023-03-13T10:31:10;94949.50;;;18.72;34.07
20860;BME280;10590;48.154;11.514;2023-03-13T10:36:15;94943.13;;;18.15;35.51
20860;BME280;10590;48.154;11.514;2023-03-13T10:41:19;94936.50;;;17.36;37.89
20860;BME280;10590;48.154;11.514;2023-03-13T10:46:27;94928.97;;;17.12;38.21
20860;BME280;10590;48.154;11.514;2023-03-13T10:51:36;94935.53;;;17.14;39.29
20860;BME280;10590;48.154;11.514;2023-03-13T10:56:38;94921.13;;;18.13;37.87
20860;BME280;10590;48.154;11.514;2023-03-13T11:01:41;94911.34;;;19.13;35.17
20860;BME280;10590;48.154;11.514;2023-03-13T11:06:50;94912.84;;;18.96;36.10
20860;BME280;10590;48.154;11.514;2023-03-13T11:11:54;94904.72;;;18.68;36.82
20860;BME280;10590;48.154;11.514;2023-03-13T11:17:02;94895.28;;;18.12;39.21
20860;BME280;10590;48.154;11.514;2023-03-13T11:22:20;94890.84;;;19.33;36.93
20860;BME280;10590;48.154;11.514;2023-03-13T11:27:30;94883.88;;;19.43;36.68
20860;BME280;10590;48.154;11.514;2023-03-13T11:32:41;94888.13;;;19.01;37.92
20860;BME280;10590;48.154;11.514;2023-03-13T11:37:43;94870.66;;;19.81;37.84
20860;BME280;10590;48.154;11.514;2023-03-13T11:42:58;94850.88;;;19.91;38.16
20860;BME280;10590;48.154;11.514;2023-03-13T11:48:07;94856.00;;;19.50;38.30
20860;BME280;10590;48.154;11.514;2023-03-13T11:53:21;94867.97;;;19.70;38.06
20860;BME280;10590;48.154;11.514;2023-03-13T11:58:37;94852.22;;;19.19;38.62
20860;BME280;10590;48.154;11.514;2023-03-13T12:03:54;94831.78;;;20.85;35.72
20860;BME280;10590;48.154;11.514;2023-03-13T12:09:02;94840.56;;;19.57;37.70
20860;BME280;10590;48.154;11.514;2023-03-13T12:14:11;94842.91;;;19.37;38.51
20860;BME280;10590;48.154;11.514;2023-03-13T12:19:16;94832.91;;;18.85;38.65
20860;BME280;10590;48.154;11.514;2023-03-13T12:24:28;94823.63;;;19.25;38.08
20860;BME280;10590;48.154;11.514;2023-03-13T12:29:41;94823.63;;;18.54;38.93
20860;BME280;10590;48.154;11.514;2023-03-13T12:34:58;94805.03;;;19.34;37.66
20860;BME280;10590;48.154;11.514;2023-03-13T12:40:04;94804.22;;;19.55;37.03
20860;BME280;10590;48.154;11.514;2023-03-13T12:45:14;94789.72;;;20.63;35.86
20860;BME280;10590;48.154;11.514;2023-03-13T12:50:33;94777.91;;;20.35;35.81
20860;BME280;10590;48.154;11.514;2023-03-13T12:55:54;94762.09;;;20.79;35.55
20860;BME280;10590;48.154;11.514;2023-03-13T13:01:02;94746.94;;;20.85;35.39
20860;BME280;10590;48.154;11.514;2023-03-13T13:06:09;94743.19;;;21.13;34.95
20860;BME280;10590;48.154;11.514;2023-03-13T13:16:58;94729.19;;;19.62;37.95
20860;BME280;10590;48.154;11.514;2023-03-13T13:27:46;94715.72;;;20.18;37.33
20860;BME280;10590;48.154;11.514;2023-03-13T13:32:48;94701.94;;;19.91;38.04
20860;BME280;10590;48.154;11.514;2023-03-13T13:37:51;94697.78;;;20.34;37.65
20860;BME280;10590;48.154;11.514;2023-03-13T13:42:55;94690.53;;;20.21;37.49
20860;BME280;10590;48.154;11.514;2023-03-13T13:53:42;94664.25;;;19.59;38.62
20860;BME280;10590;48.154;11.514;2023-03-13T13:58:46;94660.16;;;19.95;37.69
20860;BME280;10590;48.154;11.514;2023-03-13T14:03:50;94644.50;;;20.17;37.71
20860;BME280;10590;48.154;11.514;2023-03-13T14:09:03;94626.06;;;20.05;37.96
20860;BME280;10590;48.154;11.514;2023-03-13T14:14:15;94619.09;;;20.04;37.90
20860;BME280;10590;48.154;11.514;2023-03-13T14:19:22;94607.81;;;20.54;36.73
20860;BME280;10590;48.154;11.514;2023-03-13T14:24:24;94584.25;;;20.06;36.49
20860;BME280;10590;48.154;11.514;2023-03-13T14:29:27;94583.63;;;19.29;38.52
20860;BME280;10590;48.154;11.514;2023-03-13T14:34:29;94572.03;;;20.28;36.31
20860;BME280;10590;48.154;11.514;2023-03-13T14:39:41;94564.13;;;20.07;36.54
20860;BME280;10590;48.154;11.514;2023-03-13T14:44:46;94553.38;;;20.00;36.15
20860;BME280;10590;48.154;11.514;2023-03-13T14:49:54;94541.63;;;19.10;38.00
20860;BME280;10590;48.154;11.514;2023-03-13T14:54:59;94539.34;;;19.01;38.21
20860;BME280;10590;48.154;11.514;2023-03-13T15:00:28;94517.78;;;18.91;38.54
20860;BME280;10590;48.154;11.514;2023-03-13T15:05:31;94494.50;;;19.04;38.64
20860;BME280;10590;48.154;11.514;2023-03-13T15:10:35;94496.13;;;18.94;38.85
20860;BME280;10590;48.154;11.514;2023-03-13T15:15:39;94492.41;;;18.70;39.79
20860;BME280;10590;48.154;11.514;2023-03-13T15:20:40;94466.97;;;18.54;40.08
20860;BME280;10590;48.154;11.514;2023-03-13T15:25:42;94452.72;;;18.50;39.97
20860;BME280;10590;48.154;11.514;2023-03-13T15:30:46;94450.03;;;18.50;39.98
20860;BME280;10590;48.154;11.514;2023-03-13T15:35:49;94439.34;;;18.21;40.82
20860;BME280;10590;48.154;11.514;2023-03-13T15:40:51;94423.53;;;18.20;41.11
20860;BME280;10590;48.154;11.514;2023-03-13T15:45:54;94416.63;;;18.11;41.71
20860;BME280;10590;48.154;11.514;2023-03-13T15:51:00;94404.78;;;17.80;41.79
20860;BME280;10590;48.154;11.514;2023-03-13T15:56:11;94397.81;;;17.87;42.32
20860;BME280;10590;48.154;11.514;2023-03-13T16:01:16;94384.69;;;17.89;41.69
20860;BME280;10590;48.154;11.514;2023-03-13T16:06:20;94360.09;;;17.62;41.89
20860;BME280;10590;48.154;11.514;2023-03-13T16:11:30;94346.06;;;18.06;41.01
20860;BME280;10590;48.154;11.514;2023-03-13T16:16:34;94338.22;;;17.38;42.80
20860;BME280;10590;48.154;11.514;2023-03-13T16:21:35;94335.88;;;17.30;42.79
20860;BME280;10590;48.154;11.514;2023-03-13T16:26:39;94340.19;;;16.95;43.34
20860;BME280;10590;48.154;11.514;2023-03-13T16:31:42;94332.88;;;16.74;43.99
20860;BME280;10590;48.154;11.514;2023-03-13T16:36:44;94312.13;;;16.75;44.05
20860;BME280;10590;48.154;11.514;2023-03-13T16:41:46;94287.09;;;16.81;44.04
20860;BME280;10590;48.154;11.514;2023-03-13T16:46:49;94294.78;;;16.86;44.25
20860;BME280;10590;48.154;11.514;2023-03-13T16:51:51;94287.09;;;16.74;44.45
20860;BME280;10590;48.154;11.514;2023-03-13T16:56:52;94265.94;;;16.55;44.70
20860;BME280;10590;48.154;11.514;2023-03-13T17:01:55;94267.06;;;16.22;45.69
20860;BME280;10590;48.154;11.514;2023-03-13T17:06:57;94253.19;;;15.95;46.58
20860;BME280;10590;48.154;11.514;2023-03-13T17:11:58;94240.09;;;15.76;47.62
20860;BME280;10590;48.154;11.514;2023-03-13T17:17:01;94233.81;;;15.47;48.65
20860;BME280;10590;48.154;11.514;2023-03-13T17:22:03;94219.16;;;15.26;49.87
20860;BME280;10590;48.154;11.514;2023-03-13T17:27:10;94208.38;;;15.16;50.13
20860;BME280;10590;48.154;11.514;2023-03-13T17:32:13;94212.19;;;15.08;50.88
20860;BME280;10590;48.154;11.514;2023-03-13T17:37:17;94219.34;;;14.79;51.53
20860;BME280;10590;48.154;11.514;2023-03-13T17:42:19;94199.28;;;14.65;51.33
20860;BME280;10590;48.154;11.514;2023-03-13T17:47:22;94214.13;;;14.45;51.97
20860;BME280;10590;48.154;11.514;2023-03-13T17:52:25;94208.25;;;14.29;51.80
20860;BME280;10590;48.154;11.514;2023-03-13T17:57:26;94197.38;;;14.11;51.31
20860;BME280;10590;48.154;11.514;2023-03-13T18:02:29;94205.00;;;14.06;51.19
20860;BME280;10590;48.154;11.514;2023-03-13T18:07:31;94201.50;;;14.01;50.85
20860;BME280;10590;48.154;11.514;2023-03-13T18:12:32;94206.34;;;13.85;51.00
20860;BME280;10590;48.154;11.514;2023-03-13T18:17:35;94205.88;;;13.76;50.94
20860;BME280;10590;48.154;11.514;2023-03-13T18:22:37;94196.16;;;13.61;50.89
20860;BME280;10590;48.154;11.514;2023-03-13T18:27:39;94184.03;;;13.33;51.24
20860;BME280;10590;48.154;11.514;2023-03-13T18:32:41;94173.31;;;13.33;50.84
20860;BME280;10590;48.154;11.514;2023-03-13T18:37:46;94166.44;;;13.36;50.40
20860;BME280;10590;48.154;11.514;2023-03-13T18:42:48;94148.53;;;13.10;49.98
20860;BME280;10590;48.154;11.514;2023-03-13T18:47:51;94123.97;;;13.01;50.14
20860;BME280;10590;48.154;11.514;2023-03-13T18:52:55;94106.97;;;12.86;49.97
20860;BME280;10590;48.154;11.514;2023-03-13T18:57:57;94090.53;;;12.88;49.19
20860;BME280;10590;48.154;11.514;2023-03-13T19:03:00;94069.78;;;12.77;49.21
20860;BME280;10590;48.154;11.514;2023-03-13T19:08:02;94059.31;;;12.65;49.42
20860;BME280;10590;48.154;11.514;2023-03-13T19:13:04;94040.44;;;12.51;49.35
20860;BME280;10590;48.154;11.514;2023-03-13T19:18:09;94040.03;;;12.49;48.84
20860;BME280;10590;48.154;11.514;2023-03-13T19:23:11;94027.81;;;12.52;48.94
20860;BME280;10590;48.154;11.514;2023-03-13T19:28:13;94033.03;;;12.37;49.66
20860;BME280;10590;48.154;11.514;2023-03-13T19:33:16;94005.16;;;12.08;50.61
20860;BME280;10590;48.154;11.514;2023-03-13T19:38:17;94017.63;;;12.27;49.47
20860;BME280;10590;48.154;11.514;2023-03-13T19:43:19;94016.19;;;12.37;49.66
20860;BME280;10590;48.154;11.514;2023-03-13T19:48:21;93985.81;;;11.89;51.31
20860;BME280;10590;48.154;11.514;2023-03-13T19:53:23;93987.09;;;11.72;51.38
20860;BME280;10590;48.154;11.514;2023-03-13T19:58:25;93981.44;;;11.77;51.51
20860;BME280;10590;48.154;11.514;2023-03-13T20:03:28;93971.00;;;11.68;52.04
20860;BME280;10590;48.154;11.514;2023-03-13T20:08:29;93979.69;;;11.62;51.91
20860;BME280;10590;48.154;11.514;2023-03-13T20:13:31;93987.81;;;11.69;52.51
20860;BME280;10590;48.154;11.514;2023-03-13T20:18:34;94001.59;;;11.71;51.94
20860;BME280;10590;48.154;11.514;2023-03-13T20:23:36;94005.38;;;11.70;52.42
20860;BME280;10590;48.154;11.514;2023-03-13T20:28:38;94015.06;;;11.52;52.66
20860;BME280;10590;48.154;11.514;2023-03-13T20:33:41;93973.22;;;11.10;53.04
20860;BME280;10590;48.154;11.514;2023-03-13T20:38:43;93994.56;;;11.10;53.67
20860;BME280;10590;48.154;11.514;2023-03-13T20:43:45;93985.28;;;11.27;53.20
20860;BME280;10590;48.154;11.514;2023-03-13T20:48:48;93980.94;;;11.41;52.57
20860;BME280;10590;48.154;11.514;2023-03-13T20:53:50;93966.03;;;11.14;53.49
20860;BME280;10590;48.154;11.514;2023-03-13T20:58:52;93951.63;;;10.96;54.13
20860;BME280;10590;48.154;11.514;2023-03-13T21:03:55;93974.03;;;11.14;53.25
20860;BME280;10590;48.154;11.514;2023-03-13T21:08:56;93966.44;;;11.16;53.21
20860;BME280;10590;48.154;11.514;2023-03-13T21:13:58;93969.47;;;11.14;53.23
20860;BME280;10590;48.154;11.514;2023-03-13T21:19:01;93970.34;;;10.73;54.56
20860;BME280;10590;48.154;11.514;2023-03-13T21:24:03;93961.84;;;10.67;54.58
20860;BME280;10590;48.154;11.514;2023-03-13T21:29:04;93946.50;;;10.61;54.41
20860;BME280;10590;48.154;11.514;2023-03-13T21:34:09;93952.31;;;10.89;53.67
20860;BME280;10590;48.154;11.514;2023-03-13T21:39:11;93955.59;;;11.05;51.85
20860;BME280;10590;48.154;11.514;2023-03-13T21:44:12;93971.78;;;11.16;51.49
20860;BME280;10590;48.154;11.514;2023-03-13T21:49:16;93968.75;;;11.17;51.29
20860;BME280;10590;48.154;11.514;2023-03-13T21:54:18;93963.72;;;11.12;51.10
20860;BME280;10590;48.154;11.514;2023-03-13T21:59:20;94002.56;;;11.33;50.13
20860;BME280;10590;48.154;11.514;2023-03-13T22:04:25;94034.16;;;11.27;50.45
20860;BME280;10590;48.154;11.514;2023-03-13T22:09:27;94054.06;;;11.10;50.95
20860;BME280;10590;48.154;11.514;2023-03-13T22:14:28;94232.28;;;10.78;53.67
20860;BME280;10590;48.154;11.514;2023-03-13T22:19:31;94247.00;;;10.72;55.42
20860;BME280;10590;48.154;11.514;2023-03-13T22:24:33;94259.94;;;10.90;55.86
20860;BME280;10590;48.154;11.514;2023-03-13T22:29:35;94257.56;;;11.04;57.49
20860;BME280;10590;48.154;11.514;2023-03-13T22:34:38;94249.78;;;11.14;58.87
20860;BME280;10590;48.154;11.514;2023-03-13T22:39:43;94271.44;;;11.29;60.12
20860;BME280;10590;48.154;11.514;2023-03-13T22:44:45;94272.00;;;11.38;60.85
20860;BME280;10590;48.154;11.514;2023-03-13T22:49:48;94236.91;;;11.39;62.26
20860;BME280;10590;48.154;11.514;2023-03-13T22:54:51;94221.66;;;11.40;63.52
20860;BME280;10590;48.154;11.514;2023-03-13T22:59:52;94243.75;;;11.37;64.65
20860;BME280;10590;48.154;11.514;2023-03-13T23:04:55;94254.47;;;11.21;65.45
20860;BME280;10590;48.154;11.514;2023-03-13T23:09:59;94250.13;;;11.13;65.98
20860;BME280;10590;48.154;11.514;2023-03-13T23:15:01;94249.13;;;11.02;67.07
20860;BME280;10590;48.154;11.514;2023-03-13T23:20:05;94247.44;;;10.94;67.75
20860;BME280;10590;48.154;11.514;2023-03-13T23:25:12;94224.13;;;10.91;67.48
20860;BME280;10590;48.154;11.514;2023-03-13T23:30:15;94246.59;;;10.90;67.75
20860;BME280;10590;48.154;11.514;2023-03-13T23:35:19;94255.97;;;10.64;68.56
20860;BME280;10590;48.154;11.514;2023-03-13T23:40:22;94249.41;;;10.77;68.03
20860;BME280;10590;48.154;11.514;2023-03-13T23:45:24;94264.19;;;10.56;69.13
20860;BME280;10590;48.154;11.514;2023-03-13T23:50:27;94259.03;;;10.47;69.41
20860;BME280;10590;48.154;11.514;2023-03-13T23:55:28;94276.84;;;10.43;69.91
